sensor_id;sensor_type;location;lat;lon;timestamp;P1;durP1;ratioP1;P2;durP2;ratioP2
10170;SDS011;5127;50.922;6.988;2022-10-22T00:02:20;3.37;;;3.00;;
10170;SDS011;5127;50.922;6.988;2022-10-22T00:04:48;4.47;;;3.10;;
10170;SDS011;5127;50.922;6.988;2022-10-22T00:07:16;5.07;;;3.27;;
10170;SDS011;5127;50.922;6.988;2022-10-22T00:09:45;4.20;;;2.90;;
10170;SDS011;5127;50.922;6.988;2022-10-22T00:12:13;6.27;;;3.07;;
10170;SDS011;5127;50.922;6.988;2022-10-22T00:14:41;4.60;;;2.90;;
10170;SDS011;5127;50.922;6.988;2022-10-22T00:17:09;5.30;;;2.93;;
10170;SDS011;5127;50.922;6.988;2022-10-22T00:19:36;4.30;;;2.63;;
10170;SDS011;5127;50.922;6.988;2022-10-22T00:22:03;4.23;;;2.67;;
10170;SDS011;5127;50.922;6.988;2022-10-22T00:24:31;5.13;;;2.80;;
10170;SDS011;5127;50.922;6.988;2022-10-22T00:27:00;4.83;;;2.60;;
10170;SDS011;5127;50.922;6.988;2022-10-22T00:29:28;3.53;;;2.57;;
10170;SDS011;5127;50.922;6.988;2022-10-22T00:31:55;6.60;;;2.90;;
10170;SDS011;5127;50.922;6.988;2022-10-22T00:34:22;3.50;;;2.50;;
10170;SDS011;5127;50.922;6.988;2022-10-22T00:36:50;5.07;;;2.70;;
10170;SDS011;5127;50.922;6.988;2022-10-22T00:39:18;3.97;;;2.63;;
10170;SDS011;5127;50.922;6.988;2022-10-22T00:41:47;7.33;;;2.67;;
10170;SDS011;5127;50.922;6.988;2022-10-22T00:47:22;5.40;;;2.40;;
10170;SDS011;5127;50.922;6.988;2022-10-22T00:49:50;5.13;;;2.40;;
10170;SDS011;5127;50.922;6.988;2022-10-22T00:52:20;3.40;;;2.20;;
10170;SDS011;5127;50.922;6.988;2022-10-22T00:54:48;3.70;;;2.77;;
10170;SDS011;5127;50.922;6.988;2022-10-22T00:57:16;4.50;;;2.77;;
10170;SDS011;5127;50.922;6.988;2022-10-22T00:59:45;4.50;;;2.67;;
10170;SDS011;5127;50.922;6.988;2022-10-22T01:02:13;5.27;;;2.80;;
10170;SDS011;5127;50.922;6.988;2022-10-22T01:04:42;6.60;;;2.87;;
10170;SDS011;5127;50.922;6.988;2022-10-22T01:07:11;6.67;;;3.57;;
10170;SDS011;5127;50.922;6.988;2022-10-22T01:09:44;5.70;;;3.70;;
10170;SDS011;5127;50.922;6.988;2022-10-22T01:12:17;5.07;;;3.63;;
10170;SDS011;5127;50.922;6.988;2022-10-22T01:14:52;8.50;;;4.20;;
10170;SDS011;5127;50.922;6.988;2022-10-22T01:17:33;6.83;;;4.50;;
10170;SDS011;5127;50.922;6.988;2022-10-22T01:20:08;11.47;;;5.20;;
10170;SDS011;5127;50.922;6.988;2022-10-22T01:22:49;7.77;;;4.30;;
10170;SDS011;5127;50.922;6.988;2022-10-22T01:25:27;5.77;;;4.03;;
10170;SDS011;5127;50.922;6.988;2022-10-22T01:28:02;4.67;;;3.27;;
10170;SDS011;5127;50.922;6.988;2022-10-22T01:30:41;3.50;;;3.20;;
10170;SDS011;5127;50.922;6.988;2022-10-22T01:33:12;4.27;;;3.30;;
10170;SDS011;5127;50.922;6.988;2022-10-22T01:35:43;5.57;;;3.20;;
10170;SDS011;5127;50.922;6.988;2022-10-22T01:38:12;7.33;;;3.00;;
10170;SDS011;5127;50.922;6.988;2022-10-22T01:40:42;5.33;;;3.03;;
10170;SDS011;5127;50.922;6.988;2022-10-22T01:43:09;6.07;;;2.77;;
10170;SDS011;5127;50.922;6.988;2022-10-22T01:45:38;3.00;;;2.30;;
10170;SDS011;5127;50.922;6.988;2022-10-22T01:48:14;3.73;;;2.70;;
10170;SDS011;5127;50.922;6.988;2022-10-22T01:50:54;4.47;;;2.73;;
10170;SDS011;5127;50.922;6.988;2022-10-22T01:53:44;4.17;;;2.53;;
10170;SDS011;5127;50.922;6.988;2022-10-22T01:56:29;5.70;;;2.50;;
10170;SDS011;5127;50.922;6.988;2022-10-22T01:59:06;3.13;;;2.40;;
10170;SDS011;5127;50.922;6.988;2022-10-22T02:01:40;3.40;;;2.40;;
10170;SDS011;5127;50.922;6.988;2022-10-22T02:04:21;4.30;;;2.30;;
10170;SDS011;5127;50.922;6.988;2022-10-22T02:06:53;7.13;;;2.00;;
10170;SDS011;5127;50.922;6.988;2022-10-22T02:09:22;4.33;;;2.57;;
10170;SDS011;5127;50.922;6.988;2022-10-22T02:11:52;5.40;;;2.23;;
10170;SDS011;5127;50.922;6.988;2022-10-22T02:14:20;4.53;;;2.20;;
10170;SDS011;5127;50.922;6.988;2022-10-22T02:16:50;5.27;;;2.50;;
10170;SDS011;5127;50.922;6.988;2022-10-22T02:19:18;2.60;;;2.07;;
10170;SDS011;5127;50.922;6.988;2022-10-22T02:21:51;3.80;;;2.57;;
10170;SDS011;5127;50.922;6.988;2022-10-22T02:24:20;3.93;;;2.37;;
10170;SDS011;5127;50.922;6.988;2022-10-22T02:26:49;4.67;;;2.20;;
10170;SDS011;5127;50.922;6.988;2022-10-22T02:29:25;5.00;;;2.43;;
10170;SDS011;5127;50.922;6.988;2022-10-22T02:31:54;4.17;;;2.53;;
10170;SDS011;5127;50.922;6.988;2022-10-22T02:34:26;4.40;;;2.43;;
10170;SDS011;5127;50.922;6.988;2022-10-22T02:36:57;4.57;;;2.23;;
10170;SDS011;5127;50.922;6.988;2022-10-22T02:39:26;4.00;;;2.47;;
10170;SDS011;5127;50.922;6.988;2022-10-22T02:41:55;3.73;;;2.57;;
10170;SDS011;5127;50.922;6.988;2022-10-22T02:44:22;4.20;;;2.60;;
10170;SDS011;5127;50.922;6.988;2022-10-22T02:46:50;5.50;;;2.70;;
10170;SDS011;5127;50.922;6.988;2022-10-22T02:49:17;4.03;;;2.50;;
10170;SDS011;5127;50.922;6.988;2022-10-22T02:51:46;4.07;;;2.30;;
10170;SDS011;5127;50.922;6.988;2022-10-22T02:54:13;3.20;;;2.63;;
10170;SDS011;5127;50.922;6.988;2022-10-22T02:56:40;4.70;;;2.30;;
10170;SDS011;5127;50.922;6.988;2022-10-22T02:59:08;2.83;;;2.33;;
10170;SDS011;5127;50.922;6.988;2022-10-22T03:01:35;4.63;;;2.60;;
10170;SDS011;5127;50.922;6.988;2022-10-22T03:04:02;3.90;;;2.50;;
10170;SDS011;5127;50.922;6.988;2022-10-22T03:06:30;3.80;;;2.70;;
10170;SDS011;5127;50.922;6.988;2022-10-22T03:08:59;3.23;;;2.53;;
10170;SDS011;5127;50.922;6.988;2022-10-22T03:11:26;3.13;;;2.30;;
10170;SDS011;5127;50.922;6.988;2022-10-22T03:13:53;3.53;;;2.50;;
10170;SDS011;5127;50.922;6.988;2022-10-22T03:16:20;3.10;;;2.73;;
10170;SDS011;5127;50.922;6.988;2022-10-22T03:18:48;2.93;;;2.50;;
10170;SDS011;5127;50.922;6.988;2022-10-22T03:21:18;3.57;;;2.53;;
10170;SDS011;5127;50.922;6.988;2022-10-22T03:23:51;5.27;;;2.90;;
10170;SDS011;5127;50.922;6.988;2022-10-22T03:26:21;3.77;;;2.40;;
10170;SDS011;5127;50.922;6.988;2022-10-22T03:28:49;3.80;;;2.37;;
10170;SDS011;5127;50.922;6.988;2022-10-22T03:31:16;3.37;;;2.47;;
10170;SDS011;5127;50.922;6.988;2022-10-22T03:33:44;3.13;;;2.67;;
10170;SDS011;5127;50.922;6.988;2022-10-22T03:36:11;3.27;;;2.97;;
10170;SDS011;5127;50.922;6.988;2022-10-22T03:38:38;3.67;;;2.57;;
10170;SDS011;5127;50.922;6.988;2022-10-22T03:41:06;2.80;;;2.43;;
10170;SDS011;5127;50.922;6.988;2022-10-22T03:43:35;4.43;;;2.60;;
10170;SDS011;5127;50.922;6.988;2022-10-22T03:46:05;4.27;;;2.60;;
10170;SDS011;5127;50.922;6.988;2022-10-22T03:48:32;5.27;;;2.50;;
10170;SDS011;5127;50.922;6.988;2022-10-22T03:50:59;4.77;;;2.77;;
10170;SDS011;5127;50.922;6.988;2022-10-22T03:53:27;4.60;;;2.87;;
10170;SDS011;5127;50.922;6.988;2022-10-22T03:55:54;3.70;;;2.90;;
10170;SDS011;5127;50.922;6.988;2022-10-22T03:58:22;4.77;;;2.33;;
10170;SDS011;5127;50.922;6.988;2022-10-22T04:00:50;5.53;;;2.80;;
10170;SDS011;5127;50.922;6.988;2022-10-22T04:03:18;3.90;;;2.60;;
10170;SDS011;5127;50.922;6.988;2022-10-22T04:05:45;5.30;;;2.97;;
10170;SDS011;5127;50.922;6.988;2022-10-22T04:08:12;4.63;;;2.70;;
10170;SDS011;5127;50.922;6.988;2022-10-22T04:10:39;5.17;;;2.63;;
10170;SDS011;5127;50.922;6.988;2022-10-22T04:13:07;5.83;;;2.53;;
10170;SDS011;5127;50.922;6.988;2022-10-22T04:15:34;3.80;;;2.30;;
10170;SDS011;5127;50.922;6.988;2022-10-22T04:18:02;3.53;;;2.53;;
10170;SDS011;5127;50.922;6.988;2022-10-22T04:20:30;4.37;;;2.77;;
10170;SDS011;5127;50.922;6.988;2022-10-22T04:22:57;3.93;;;2.90;;
10170;SDS011;5127;50.922;6.988;2022-10-22T04:25:24;3.47;;;2.57;;
10170;SDS011;5127;50.922;6.988;2022-10-22T04:27:51;4.07;;;2.50;;
10170;SDS011;5127;50.922;6.988;2022-10-22T04:30:19;6.37;;;2.90;;
10170;SDS011;5127;50.922;6.988;2022-10-22T04:32:46;2.73;;;2.43;;
10170;SDS011;5127;50.922;6.988;2022-10-22T04:35:14;4.87;;;2.77;;
10170;SDS011;5127;50.922;6.988;2022-10-22T04:37:42;6.67;;;3.00;;
10170;SDS011;5127;50.922;6.988;2022-10-22T04:40:10;6.77;;;2.87;;
10170;SDS011;5127;50.922;6.988;2022-10-22T04:42:38;5.33;;;3.07;;
10170;SDS011;5127;50.922;6.988;2022-10-22T04:45:05;4.77;;;3.47;;
10170;SDS011;5127;50.922;6.988;2022-10-22T04:47:33;3.37;;;3.00;;
10170;SDS011;5127;50.922;6.988;2022-10-22T04:50:00;7.37;;;3.23;;
10170;SDS011;5127;50.922;6.988;2022-10-22T04:52:29;4.73;;;3.23;;
10170;SDS011;5127;50.922;6.988;2022-10-22T04:54:56;7.13;;;3.60;;
10170;SDS011;5127;50.922;6.988;2022-10-22T04:57:24;8.43;;;3.50;;
10170;SDS011;5127;50.922;6.988;2022-10-22T04:59:55;6.20;;;3.00;;
10170;SDS011;5127;50.922;6.988;2022-10-22T05:02:22;4.03;;;3.33;;
10170;SDS011;5127;50.922;6.988;2022-10-22T05:04:50;4.37;;;3.60;;
10170;SDS011;5127;50.922;6.988;2022-10-22T05:07:17;3.50;;;3.17;;
10170;SDS011;5127;50.922;6.988;2022-10-22T05:09:46;4.70;;;3.50;;
10170;SDS011;5127;50.922;6.988;2022-10-22T05:12:13;4.57;;;3.20;;
10170;SDS011;5127;50.922;6.988;2022-10-22T05:14:40;4.00;;;3.47;;
10170;SDS011;5127;50.922;6.988;2022-10-22T05:17:08;3.50;;;3.20;;
10170;SDS011;5127;50.922;6.988;2022-10-22T05:19:35;3.50;;;3.20;;
10170;SDS011;5127;50.922;6.988;2022-10-22T05:22:03;3.63;;;2.87;;
10170;SDS011;5127;50.922;6.988;2022-10-22T05:24:31;3.53;;;2.90;;
10170;SDS011;5127;50.922;6.988;2022-10-22T05:27:02;4.50;;;3.43;;
10170;SDS011;5127;50.922;6.988;2022-10-22T05:29:30;3.20;;;2.80;;
10170;SDS011;5127;50.922;6.988;2022-10-22T05:31:57;5.07;;;3.30;;
10170;SDS011;5127;50.922;6.988;2022-10-22T05:34:24;6.60;;;3.00;;
10170;SDS011;5127;50.922;6.988;2022-10-22T05:36:51;7.87;;;3.30;;
10170;SDS011;5127;50.922;6.988;2022-10-22T05:39:18;6.03;;;3.07;;
10170;SDS011;5127;50.922;6.988;2022-10-22T05:41:46;3.97;;;2.80;;
10170;SDS011;5127;50.922;6.988;2022-10-22T05:44:14;3.93;;;3.20;;
10170;SDS011;5127;50.922;6.988;2022-10-22T05:46:42;4.97;;;3.00;;
10170;SDS011;5127;50.922;6.988;2022-10-22T05:49:10;5.50;;;3.00;;
10170;SDS011;5127;50.922;6.988;2022-10-22T05:51:39;6.63;;;3.03;;
10170;SDS011;5127;50.922;6.988;2022-10-22T05:54:06;4.33;;;2.97;;
10170;SDS011;5127;50.922;6.988;2022-10-22T05:56:35;3.80;;;3.30;;
10170;SDS011;5127;50.922;6.988;2022-10-22T05:59:03;4.60;;;3.20;;
10170;SDS011;5127;50.922;6.988;2022-10-22T06:01:32;4.33;;;3.30;;
10170;SDS011;5127;50.922;6.988;2022-10-22T06:04:02;6.77;;;3.67;;
10170;SDS011;5127;50.922;6.988;2022-10-22T06:06:31;5.87;;;3.50;;
10170;SDS011;5127;50.922;6.988;2022-10-22T06:09:01;7.30;;;3.40;;
10170;SDS011;5127;50.922;6.988;2022-10-22T06:11:30;5.27;;;3.50;;
10170;SDS011;5127;50.922;6.988;2022-10-22T06:13:57;7.33;;;3.63;;
10170;SDS011;5127;50.922;6.988;2022-10-22T06:16:24;5.60;;;3.80;;
10170;SDS011;5127;50.922;6.988;2022-10-22T06:18:57;5.23;;;3.47;;
10170;SDS011;5127;50.922;6.988;2022-10-22T06:21:25;7.40;;;3.90;;
10170;SDS011;5127;50.922;6.988;2022-10-22T06:23:54;6.10;;;3.70;;
10170;SDS011;5127;50.922;6.988;2022-10-22T06:26:21;7.07;;;4.30;;
10170;SDS011;5127;50.922;6.988;2022-10-22T06:28:48;8.53;;;4.13;;
10170;SDS011;5127;50.922;6.988;2022-10-22T06:31:16;7.37;;;3.90;;
10170;SDS011;5127;50.922;6.988;2022-10-22T06:33:43;9.73;;;4.33;;
10170;SDS011;5127;50.922;6.988;2022-10-22T06:36:12;4.97;;;4.47;;
10170;SDS011;5127;50.922;6.988;2022-10-22T06:38:41;8.33;;;4.80;;
10170;SDS011;5127;50.922;6.988;2022-10-22T06:41:10;7.77;;;5.10;;
10170;SDS011;5127;50.922;6.988;2022-10-22T06:43:38;9.47;;;4.77;;
10170;SDS011;5127;50.922;6.988;2022-10-22T06:46:06;5.87;;;5.07;;
10170;SDS011;5127;50.922;6.988;2022-10-22T06:48:35;4.80;;;4.40;;
10170;SDS011;5127;50.922;6.988;2022-10-22T06:51:05;8.97;;;5.00;;
10170;SDS011;5127;50.922;6.988;2022-10-22T06:53:35;5.47;;;4.20;;
10170;SDS011;5127;50.922;6.988;2022-10-22T06:56:04;4.20;;;3.73;;
10170;SDS011;5127;50.922;6.988;2022-10-22T06:58:31;5.53;;;4.07;;
10170;SDS011;5127;50.922;6.988;2022-10-22T07:00:59;5.37;;;4.13;;
10170;SDS011;5127;50.922;6.988;2022-10-22T07:03:28;5.13;;;4.17;;
10170;SDS011;5127;50.922;6.988;2022-10-22T07:05:57;6.90;;;6.20;;
10170;SDS011;5127;50.922;6.988;2022-10-22T07:08:25;7.93;;;6.47;;
10170;SDS011;5127;50.922;6.988;2022-10-22T07:10:54;6.80;;;6.20;;
10170;SDS011;5127;50.922;6.988;2022-10-22T07:13:23;5.07;;;4.47;;
10170;SDS011;5127;50.922;6.988;2022-10-22T07:15:51;5.17;;;4.67;;
10170;SDS011;5127;50.922;6.988;2022-10-22T07:18:19;5.87;;;4.63;;
10170;SDS011;5127;50.922;6.988;2022-10-22T07:20:47;4.83;;;4.33;;
10170;SDS011;5127;50.922;6.988;2022-10-22T07:23:14;5.83;;;4.37;;
10170;SDS011;5127;50.922;6.988;2022-10-22T07:25:41;7.27;;;5.80;;
10170;SDS011;5127;50.922;6.988;2022-10-22T07:28:10;7.20;;;5.07;;
10170;SDS011;5127;50.922;6.988;2022-10-22T07:30:38;6.37;;;5.33;;
10170;SDS011;5127;50.922;6.988;2022-10-22T07:33:06;7.00;;;6.40;;
10170;SDS011;5127;50.922;6.988;2022-10-22T07:35:33;5.93;;;5.17;;
10170;SDS011;5127;50.922;6.988;2022-10-22T07:38:01;5.67;;;4.30;;
10170;SDS011;5127;50.922;6.988;2022-10-22T07:40:29;6.70;;;3.73;;
10170;SDS011;5127;50.922;6.988;2022-10-22T07:42:56;6.20;;;3.93;;
10170;SDS011;5127;50.922;6.988;2022-10-22T07:45:25;5.97;;;3.30;;
10170;SDS011;5127;50.922;6.988;2022-10-22T07:47:52;5.03;;;3.33;;
10170;SDS011;5127;50.922;6.988;2022-10-22T07:50:19;5.32;;;2.78;;
10170;SDS011;5127;50.922;6.988;2022-10-22T07:52:47;4.43;;;2.40;;
10170;SDS011;5127;50.922;6.988;2022-10-22T07:55:14;3.50;;;2.50;;
10170;SDS011;5127;50.922;6.988;2022-10-22T07:57:41;3.30;;;2.13;;
10170;SDS011;5127;50.922;6.988;2022-10-22T08:00:09;3.33;;;2.15;;
10170;SDS011;5127;50.922;6.988;2022-10-22T08:02:44;3.05;;;2.15;;
10170;SDS011;5127;50.922;6.988;2022-10-22T08:05:11;2.60;;;1.90;;
10170;SDS011;5127;50.922;6.988;2022-10-22T08:07:39;2.78;;;1.77;;
10170;SDS011;5127;50.922;6.988;2022-10-22T08:10:07;4.03;;;1.77;;
10170;SDS011;5127;50.922;6.988;2022-10-22T08:12:35;4.88;;;1.85;;
10170;SDS011;5127;50.922;6.988;2022-10-22T08:15:03;2.47;;;1.58;;
10170;SDS011;5127;50.922;6.988;2022-10-22T08:17:31;3.08;;;1.75;;
10170;SDS011;5127;50.922;6.988;2022-10-22T08:20:00;5.38;;;1.65;;
10170;SDS011;5127;50.922;6.988;2022-10-22T08:22:27;1.73;;;1.48;;
10170;SDS011;5127;50.922;6.988;2022-10-22T08:24:54;3.53;;;1.70;;
10170;SDS011;5127;50.922;6.988;2022-10-22T08:27:22;2.33;;;1.58;;
10170;SDS011;5127;50.922;6.988;2022-10-22T08:29:49;1.58;;;1.42;;
10170;SDS011;5127;50.922;6.988;2022-10-22T08:32:16;2.15;;;1.58;;
10170;SDS011;5127;50.922;6.988;2022-10-22T08:34:43;4.40;;;1.73;;
10170;SDS011;5127;50.922;6.988;2022-10-22T08:37:12;1.60;;;1.48;;
10170;SDS011;5127;50.922;6.988;2022-10-22T08:39:41;2.50;;;1.42;;
10170;SDS011;5127;50.922;6.988;2022-10-22T08:42:16;2.40;;;1.67;;
10170;SDS011;5127;50.922;6.988;2022-10-22T08:45:02;3.72;;;1.42;;
10170;SDS011;5127;50.922;6.988;2022-10-22T08:47:44;2.35;;;1.52;;
10170;SDS011;5127;50.922;6.988;2022-10-22T08:50:26;2.28;;;1.30;;
10170;SDS011;5127;50.922;6.988;2022-10-22T08:53:00;6.15;;;1.77;;
10170;SDS011;5127;50.922;6.988;2022-10-22T08:55:31;3.95;;;1.40;;
10170;SDS011;5127;50.922;6.988;2022-10-22T08:58:00;4.55;;;1.50;;
10170;SDS011;5127;50.922;6.988;2022-10-22T09:00:34;2.08;;;1.25;;
10170;SDS011;5127;50.922;6.988;2022-10-22T09:03:09;1.30;;;1.10;;
10170;SDS011;5127;50.922;6.988;2022-10-22T09:06:01;2.58;;;1.35;;
10170;SDS011;5127;50.922;6.988;2022-10-22T09:08:36;3.50;;;1.50;;
10170;SDS011;5127;50.922;6.988;2022-10-22T09:11:05;2.75;;;1.20;;
10170;SDS011;5127;50.922;6.988;2022-10-22T09:13:40;4.70;;;1.50;;
10170;SDS011;5127;50.922;6.988;2022-10-22T09:16:13;2.65;;;1.40;;
10170;SDS011;5127;50.922;6.988;2022-10-22T09:18:45;3.20;;;1.15;;
10170;SDS011;5127;50.922;6.988;2022-10-22T09:21:22;2.63;;;1.30;;
10170;SDS011;5127;50.922;6.988;2022-10-22T09:23:58;4.22;;;1.30;;
10170;SDS011;5127;50.922;6.988;2022-10-22T09:26:34;2.45;;;1.50;;
10170;SDS011;5127;50.922;6.988;2022-10-22T09:29:04;2.50;;;1.38;;
10170;SDS011;5127;50.922;6.988;2022-10-22T09:31:33;2.47;;;1.35;;
10170;SDS011;5127;50.922;6.988;2022-10-22T09:34:00;1.70;;;1.15;;
10170;SDS011;5127;50.922;6.988;2022-10-22T09:36:32;2.15;;;1.33;;
10170;SDS011;5127;50.922;6.988;2022-10-22T09:39:01;5.20;;;1.20;;
10170;SDS011;5127;50.922;6.988;2022-10-22T09:41:29;2.92;;;1.15;;
10170;SDS011;5127;50.922;6.988;2022-10-22T09:43:56;3.60;;;1.23;;
10170;SDS011;5127;50.922;6.988;2022-10-22T09:46:25;2.55;;;1.10;;
10170;SDS011;5127;50.922;6.988;2022-10-22T09:48:58;1.33;;;1.13;;
10170;SDS011;5127;50.922;6.988;2022-10-22T09:51:35;1.77;;;1.10;;
10170;SDS011;5127;50.922;6.988;2022-10-22T09:54:14;1.30;;;1.10;;
10170;SDS011;5127;50.922;6.988;2022-10-22T09:56:46;3.50;;;1.17;;
10170;SDS011;5127;50.922;6.988;2022-10-22T09:59:17;4.18;;;1.02;;
10170;SDS011;5127;50.922;6.988;2022-10-22T10:01:55;2.97;;;1.17;;
10170;SDS011;5127;50.922;6.988;2022-10-22T10:04:24;3.70;;;1.33;;
10170;SDS011;5127;50.922;6.988;2022-10-22T10:06:52;3.72;;;1.30;;
10170;SDS011;5127;50.922;6.988;2022-10-22T10:09:23;2.20;;;1.20;;
10170;SDS011;5127;50.922;6.988;2022-10-22T10:11:54;3.80;;;1.20;;
10170;SDS011;5127;50.922;6.988;2022-10-22T10:14:28;3.22;;;1.02;;
10170;SDS011;5127;50.922;6.988;2022-10-22T10:17:04;2.47;;;1.10;;
10170;SDS011;5127;50.922;6.988;2022-10-22T10:19:42;2.53;;;1.20;;
10170;SDS011;5127;50.922;6.988;2022-10-22T10:22:22;4.55;;;1.42;;
10170;SDS011;5127;50.922;6.988;2022-10-22T10:25:11;2.83;;;1.45;;
10170;SDS011;5127;50.922;6.988;2022-10-22T10:27:51;5.55;;;1.50;;
10170;SDS011;5127;50.922;6.988;2022-10-22T10:30:24;3.20;;;1.35;;
10170;SDS011;5127;50.922;6.988;2022-10-22T10:33:14;3.38;;;1.42;;
10170;SDS011;5127;50.922;6.988;2022-10-22T10:35:50;3.03;;;1.00;;
10170;SDS011;5127;50.922;6.988;2022-10-22T10:38:31;1.98;;;1.10;;
10170;SDS011;5127;50.922;6.988;2022-10-22T10:41:09;3.35;;;1.00;;
10170;SDS011;5127;50.922;6.988;2022-10-22T10:43:46;3.50;;;1.00;;
10170;SDS011;5127;50.922;6.988;2022-10-22T10:46:26;3.22;;;1.13;;
10170;SDS011;5127;50.922;6.988;2022-10-22T10:49:00;2.28;;;1.17;;
10170;SDS011;5127;50.922;6.988;2022-10-22T10:51:35;1.50;;;0.90;;
10170;SDS011;5127;50.922;6.988;2022-10-22T10:54:29;3.05;;;1.02;;
10170;SDS011;5127;50.922;6.988;2022-10-22T10:57:08;1.75;;;0.93;;
10170;SDS011;5127;50.922;6.988;2022-10-22T11:05:37;1.60;;;0.77;;
10170;SDS011;5127;50.922;6.988;2022-10-22T11:08:09;2.40;;;0.95;;
10170;SDS011;5127;50.922;6.988;2022-10-22T11:10:41;1.52;;;0.80;;
10170;SDS011;5127;50.922;6.988;2022-10-22T11:13:15;3.05;;;1.05;;
10170;SDS011;5127;50.922;6.988;2022-10-22T11:15:49;1.58;;;0.70;;
10170;SDS011;5127;50.922;6.988;2022-10-22T11:18:21;1.55;;;0.70;;
10170;SDS011;5127;50.922;6.988;2022-10-22T11:20:57;4.13;;;0.80;;
10170;SDS011;5127;50.922;6.988;2022-10-22T11:23:31;2.20;;;0.93;;
10170;SDS011;5127;50.922;6.988;2022-10-22T11:26:04;2.65;;;1.00;;
10170;SDS011;5127;50.922;6.988;2022-10-22T11:28:41;1.77;;;0.80;;
10170;SDS011;5127;50.922;6.988;2022-10-22T11:31:12;1.48;;;0.77;;
10170;SDS011;5127;50.922;6.988;2022-10-22T11:33:43;1.05;;;0.73;;
10170;SDS011;5127;50.922;6.988;2022-10-22T11:36:17;1.77;;;0.85;;
10170;SDS011;5127;50.922;6.988;2022-10-22T11:38:49;1.42;;;0.80;;
10170;SDS011;5127;50.922;6.988;2022-10-22T11:41:18;2.42;;;1.00;;
10170;SDS011;5127;50.922;6.988;2022-10-22T11:44:08;2.22;;;0.95;;
10170;SDS011;5127;50.922;6.988;2022-10-22T11:46:38;3.28;;;1.15;;
10170;SDS011;5127;50.922;6.988;2022-10-22T11:49:16;2.03;;;0.88;;
10170;SDS011;5127;50.922;6.988;2022-10-22T11:51:48;3.35;;;1.00;;
10170;SDS011;5127;50.922;6.988;2022-10-22T11:57:17;2.20;;;0.80;;
10170;SDS011;5127;50.922;6.988;2022-10-22T11:59:49;2.17;;;0.75;;
10170;SDS011;5127;50.922;6.988;2022-10-22T12:05:29;1.33;;;0.57;;
10170;SDS011;5127;50.922;6.988;2022-10-22T12:10:57;1.83;;;0.90;;
10170;SDS011;5127;50.922;6.988;2022-10-22T12:13:30;3.10;;;0.88;;
10170;SDS011;5127;50.922;6.988;2022-10-22T12:16:02;3.00;;;0.93;;
10170;SDS011;5127;50.922;6.988;2022-10-22T12:18:33;1.80;;;0.80;;
10170;SDS011;5127;50.922;6.988;2022-10-22T12:21:07;1.52;;;0.73;;
10170;SDS011;5127;50.922;6.988;2022-10-22T12:23:37;1.40;;;0.80;;
10170;SDS011;5127;50.922;6.988;2022-10-22T12:26:05;2.55;;;0.85;;
10170;SDS011;5127;50.922;6.988;2022-10-22T12:28:46;2.33;;;0.73;;
10170;SDS011;5127;50.922;6.988;2022-10-22T12:31:15;3.03;;;0.77;;
10170;SDS011;5127;50.922;6.988;2022-10-22T12:33:43;2.63;;;0.82;;
10170;SDS011;5127;50.922;6.988;2022-10-22T12:36:14;2.25;;;0.70;;
10170;SDS011;5127;50.922;6.988;2022-10-22T12:38:44;1.73;;;0.88;;
10170;SDS011;5127;50.922;6.988;2022-10-22T12:41:12;2.00;;;1.00;;
10170;SDS011;5127;50.922;6.988;2022-10-22T12:43:39;4.65;;;1.00;;
10170;SDS011;5127;50.922;6.988;2022-10-22T12:46:09;1.83;;;0.80;;
10170;SDS011;5127;50.922;6.988;2022-10-22T12:48:41;1.92;;;0.93;;
10170;SDS011;5127;50.922;6.988;2022-10-22T12:51:11;1.20;;;0.75;;
10170;SDS011;5127;50.922;6.988;2022-10-22T12:53:42;1.30;;;0.70;;
10170;SDS011;5127;50.922;6.988;2022-10-22T12:56:12;2.67;;;0.52;;
10170;SDS011;5127;50.922;6.988;2022-10-22T12:58:42;1.70;;;0.63;;
10170;SDS011;5127;50.922;6.988;2022-10-22T13:01:12;1.48;;;0.50;;
10170;SDS011;5127;50.922;6.988;2022-10-22T13:03:43;1.52;;;0.65;;
10170;SDS011;5127;50.922;6.988;2022-10-22T13:06:12;1.40;;;0.77;;
10170;SDS011;5127;50.922;6.988;2022-10-22T13:08:54;2.15;;;0.95;;
10170;SDS011;5127;50.922;6.988;2022-10-22T13:11:29;2.30;;;1.38;;
10170;SDS011;5127;50.922;6.988;2022-10-22T13:14:02;3.13;;;1.30;;
10170;SDS011;5127;50.922;6.988;2022-10-22T13:16:30;1.58;;;1.10;;
10170;SDS011;5127;50.922;6.988;2022-10-22T13:18:59;1.88;;;0.90;;
10170;SDS011;5127;50.922;6.988;2022-10-22T13:21:27;3.85;;;1.02;;
10170;SDS011;5127;50.922;6.988;2022-10-22T13:23:59;2.15;;;1.00;;
10170;SDS011;5127;50.922;6.988;2022-10-22T13:26:31;3.60;;;1.00;;
10170;SDS011;5127;50.922;6.988;2022-10-22T13:29:00;1.25;;;0.60;;
10170;SDS011;5127;50.922;6.988;2022-10-22T13:31:29;1.70;;;0.73;;
10170;SDS011;5127;50.922;6.988;2022-10-22T13:34:00;3.05;;;0.88;;
10170;SDS011;5127;50.922;6.988;2022-10-22T13:36:30;4.25;;;1.00;;
10170;SDS011;5127;50.922;6.988;2022-10-22T13:38:58;1.60;;;0.90;;
10170;SDS011;5127;50.922;6.988;2022-10-22T13:41:26;0.52;;;0.43;;
10170;SDS011;5127;50.922;6.988;2022-10-22T13:43:56;1.42;;;0.77;;
10170;SDS011;5127;50.922;6.988;2022-10-22T13:46:24;1.92;;;0.75;;
10170;SDS011;5127;50.922;6.988;2022-10-22T13:48:54;1.35;;;0.80;;
10170;SDS011;5127;50.922;6.988;2022-10-22T13:51:26;2.30;;;0.80;;
10170;SDS011;5127;50.922;6.988;2022-10-22T13:53:59;1.73;;;0.75;;
10170;SDS011;5127;50.922;6.988;2022-10-22T13:56:27;2.42;;;0.98;;
10170;SDS011;5127;50.922;6.988;2022-10-22T13:58:55;3.08;;;0.90;;
10170;SDS011;5127;50.922;6.988;2022-10-22T14:01:22;1.30;;;0.70;;
10170;SDS011;5127;50.922;6.988;2022-10-22T14:03:52;4.70;;;0.90;;
10170;SDS011;5127;50.922;6.988;2022-10-22T14:06:22;0.90;;;0.73;;
10170;SDS011;5127;50.922;6.988;2022-10-22T14:08:54;1.92;;;0.85;;
10170;SDS011;5127;50.922;6.988;2022-10-22T14:11:23;2.80;;;0.80;;
10170;SDS011;5127;50.922;6.988;2022-10-22T14:13:51;2.42;;;1.00;;
10170;SDS011;5127;50.922;6.988;2022-10-22T14:16:19;2.75;;;0.80;;
10170;SDS011;5127;50.922;6.988;2022-10-22T14:18:48;2.60;;;0.85;;
10170;SDS011;5127;50.922;6.988;2022-10-22T14:21:16;2.03;;;0.90;;
10170;SDS011;5127;50.922;6.988;2022-10-22T14:23:46;2.05;;;0.80;;
10170;SDS011;5127;50.922;6.988;2022-10-22T14:26:17;1.90;;;1.00;;
10170;SDS011;5127;50.922;6.988;2022-10-22T14:28:47;1.17;;;0.80;;
10170;SDS011;5127;50.922;6.988;2022-10-22T14:31:15;3.10;;;1.05;;
10170;SDS011;5127;50.922;6.988;2022-10-22T14:33:42;2.78;;;0.80;;
10170;SDS011;5127;50.922;6.988;2022-10-22T14:36:10;1.65;;;0.95;;
10170;SDS011;5127;50.922;6.988;2022-10-22T14:38:39;1.42;;;0.80;;
10170;SDS011;5127;50.922;6.988;2022-10-22T14:41:13;2.05;;;1.00;;
10170;SDS011;5127;50.922;6.988;2022-10-22T14:43:43;2.35;;;0.85;;
10170;SDS011;5127;50.922;6.988;2022-10-22T14:46:11;3.40;;;0.75;;
10170;SDS011;5127;50.922;6.988;2022-10-22T14:48:40;2.28;;;0.77;;
10170;SDS011;5127;50.922;6.988;2022-10-22T14:51:09;2.40;;;1.45;;
10170;SDS011;5127;50.922;6.988;2022-10-22T14:53:38;1.77;;;1.33;;
10170;SDS011;5127;50.922;6.988;2022-10-22T14:56:05;3.38;;;1.25;;
10170;SDS011;5127;50.922;6.988;2022-10-22T14:58:34;2.38;;;0.98;;
10170;SDS011;5127;50.922;6.988;2022-10-22T15:01:01;1.40;;;0.90;;
10170;SDS011;5127;50.922;6.988;2022-10-22T15:03:29;1.42;;;0.85;;
10170;SDS011;5127;50.922;6.988;2022-10-22T15:05:56;2.67;;;0.90;;
10170;SDS011;5127;50.922;6.988;2022-10-22T15:08:25;1.90;;;0.80;;
10170;SDS011;5127;50.922;6.988;2022-10-22T15:10:56;1.50;;;0.93;;
10170;SDS011;5127;50.922;6.988;2022-10-22T15:13:25;3.80;;;1.10;;
10170;SDS011;5127;50.922;6.988;2022-10-22T15:15:54;4.57;;;1.27;;
10170;SDS011;5127;50.922;6.988;2022-10-22T15:18:21;3.55;;;1.25;;
10170;SDS011;5127;50.922;6.988;2022-10-22T15:20:55;4.18;;;2.00;;
10170;SDS011;5127;50.922;6.988;2022-10-22T15:23:24;2.13;;;1.30;;
10170;SDS011;5127;50.922;6.988;2022-10-22T15:25:51;2.55;;;1.30;;
10170;SDS011;5127;50.922;6.988;2022-10-22T15:28:19;2.10;;;1.30;;
10170;SDS011;5127;50.922;6.988;2022-10-22T15:30:50;4.13;;;1.63;;
10170;SDS011;5127;50.922;6.988;2022-10-22T15:33:20;3.03;;;1.38;;
10170;SDS011;5127;50.922;6.988;2022-10-22T15:35:47;2.30;;;1.30;;
10170;SDS011;5127;50.922;6.988;2022-10-22T15:38:14;1.30;;;1.10;;